Time;durP1;ratioP1;P1;durP2;ratioP2;P2;SDS_P1;SDS_P2;PMS_P1;PMS_P2;Temp;Humidity;BMP_temperature;BMP_pressure;BME280_temperature;BME280_humidity;BME280_pressure;Samples;Min_cycle;Max_cycle;Signal;HPM_P1;HPM_P2
2024/03/20 00:00:14;;;;;;;5.90;5.30;;;14.40;96.70;;;;;;4910153;29;20055;-73
2024/03/20 00:02:41;;;;;;;7.47;5.97;;;14.30;96.70;;;;;;4914370;29;20094;-73
2024/03/20 00:05:09;;;;;;;8.13;6.05;;;14.20;96.70;;;;;;4930622;29;20052;-73
2024/03/20 00:07:37;;;;;;;6.88;6.00;;;14.20;96.70;;;;;;4930355;29;20130;-73
2024/03/20 00:10:05;;;;;;;9.32;5.72;;;14.20;96.70;;;;;;4926278;29;20061;-73
2024/03/20 00:12:34;;;;;;;8.35;6.22;;;14.20;96.70;;;;;;4912965;29;20051;-72
2024/03/20 00:15:06;;;;;;;7.00;6.00;;;14.10;96.70;;;;;;4929999;29;21447;-72
2024/03/20 00:17:33;;;;;;;10.75;6.40;;;14.20;96.70;;;;;;4944844;29;20043;-73
2024/03/20 00:20:01;;;;;;;7.40;6.50;;;14.10;96.70;;;;;;4946369;29;20043;-73
2024/03/20 00:22:28;;;;;;;7.03;5.80;;;14.10;96.70;;;;;;4910974;29;20620;-73
2024/03/20 00:24:58;;;;;;;9.13;5.70;;;14.00;96.70;;;;;;4912636;29;20101;-73
2024/03/20 00:27:26;;;;;;;12.35;6.25;;;13.90;96.70;;;;;;4926016;29;20063;-72
2024/03/20 00:29:54;;;;;;;7.72;5.72;;;13.90;96.70;;;;;;4899450;29;20051;-73
2024/03/20 00:32:23;;;;;;;7.13;5.72;;;13.90;96.70;;;;;;4928699;29;20054;-72
2024/03/20 00:34:50;;;;;;;8.80;5.97;;;13.80;96.70;;;;;;4927449;29;20052;-72
2024/03/20 00:37:18;;;;;;;6.97;5.80;;;13.80;96.70;;;;;;4931519;29;20420;-72
2024/03/20 00:39:46;;;;;;;7.10;5.78;;;13.80;96.70;;;;;;4947109;28;20040;-73
2024/03/20 00:42:14;;;;;;;8.43;6.07;;;13.80;96.70;;;;;;4932184;29;20055;-72
2024/03/20 00:44:41;;;;;;;8.23;6.22;;;13.80;96.70;;;;;;4916022;29;20051;-73
2024/03/20 00:47:08;;;;;;;8.13;5.90;;;13.80;96.70;;;;;;4931142;29;20051;-73
2024/03/20 00:49:37;;;;;;;8.90;7.05;;;13.80;96.70;;;;;;4932870;29;20110;-73
2024/03/20 00:52:06;;;;;;;12.77;7.72;;;13.80;96.70;;;;;;4933407;29;20083;-72
2024/03/20 00:54:33;;;;;;;6.85;5.60;;;13.70;96.70;;;;;;4908509;29;20132;-73
2024/03/20 00:57:01;;;;;;;6.53;5.28;;;13.60;96.70;;;;;;4932584;29;20058;-73
2024/03/20 00:59:31;;;;;;;6.40;4.38;;;13.50;96.70;;;;;;4948471;29;20444;-72
2024/03/20 01:01:58;;;;;;;5.53;4.28;;;13.50;96.70;;;;;;4932274;29;20057;-73
2024/03/20 01:04:25;;;;;;;5.43;4.80;;;13.50;96.70;;;;;;4917322;29;20118;-72
2024/03/20 01:06:56;;;;;;;5.07;4.05;;;13.50;96.70;;;;;;4932367;29;20390;-72
2024/03/20 01:09:24;;;;;;;5.72;4.20;;;13.50;96.70;;;;;;4914089;29;20065;-72
2024/03/20 01:11:52;;;;;;;5.00;3.67;;;13.40;96.70;;;;;;4948369;29;20063;-72
2024/03/20 01:14:20;;;;;;;5.28;3.72;;;13.40;96.70;;;;;;4924270;29;20058;-73
2024/03/20 01:16:48;;;;;;;7.93;3.83;;;13.50;96.70;;;;;;4932900;29;20055;-73
2024/03/20 01:19:16;;;;;;;4.35;3.53;;;13.40;96.70;;;;;;4932855;29;20594;-72
2024/03/20 01:21:44;;;;;;;5.90;4.32;;;13.40;96.70;;;;;;4932239;29;20537;-72
2024/03/20 01:24:14;;;;;;;5.00;4.00;;;13.40;96.70;;;;;;4933058;29;20509;-72
2024/03/20 01:26:42;;;;;;;3.83;3.25;;;13.30;96.70;;;;;;4913291;29;20066;-72
2024/03/20 01:29:09;;;;;;;4.78;3.65;;;13.20;96.70;;;;;;4929101;29;20051;-72
2024/03/20 01:31:38;;;;;;;5.38;3.90;;;13.10;96.70;;;;;;4933686;29;20138;-73
2024/03/20 01:34:07;;;;;;;5.32;3.20;;;13.10;96.70;;;;;;4916448;29;20428;-72
2024/03/20 01:36:36;;;;;;;3.42;3.05;;;13.10;96.70;;;;;;4915167;29;20464;-73
2024/03/20 01:39:04;;;;;;;4.63;3.65;;;13.10;96.70;;;;;;4944236;29;20054;-73
2024/03/20 01:41:33;;;;;;;6.65;3.45;;;13.10;96.70;;;;;;4900471;29;20054;-72
2024/03/20 01:44:01;;;;;;;4.35;3.25;;;13.10;96.70;;;;;;4931678;29;20420;-73
2024/03/20 01:46:31;;;;;;;3.92;3.22;;;13.10;96.70;;;;;;4916517;29;20055;-72
2024/03/20 01:48:59;;;;;;;4.68;3.05;;;13.10;96.70;;;;;;4916551;29;20082;-72
2024/03/20 01:51:27;;;;;;;4.43;3.00;;;13.00;96.70;;;;;;4933567;29;20061;-74
2024/03/20 01:53:56;;;;;;;4.78;3.10;;;13.00;96.70;;;;;;4901319;29;20074;-74
2024/03/20 01:56:24;;;;;;;5.05;2.85;;;12.90;96.70;;;;;;4915657;29;20114;-74
2024/03/20 01:58:56;;;;;;;5.43;3.28;;;12.90;96.70;;;;;;4929882;29;20504;-74
2024/03/20 02:01:25;;;;;;;3.53;3.05;;;12.90;96.70;;;;;;4913392;29;20052;-74
2024/03/20 02:03:54;;;;;;;3.67;3.00;;;12.90;96.70;;;;;;4947834;28;20442;-73
2024/03/20 02:06:25;;;;;;;3.60;3.20;;;12.90;96.70;;;;;;4919237;29;20062;-74
2024/03/20 02:08:54;;;;;;;3.80;3.15;;;12.90;96.70;;;;;;4931946;29;20118;-75
2024/03/20 02:11:23;;;;;;;4.57;3.30;;;12.90;96.70;;;;;;4930255;29;20051;-74
2024/03/20 02:13:55;;;;;;;5.53;3.22;;;12.80;96.70;;;;;;4929824;29;20067;-74
2024/03/20 02:16:28;;;;;;;8.13;3.50;;;12.80;96.70;;;;;;4931817;29;20081;-74
2024/03/20 02:18:56;;;;;;;4.55;3.50;;;12.70;96.70;;;;;;4916958;29;20182;-74
2024/03/20 02:21:26;;;;;;;5.47;3.42;;;12.70;96.70;;;;;;4932108;29;20044;-72
2024/03/20 02:23:54;;;;;;;5.10;3.20;;;12.60;96.70;;;;;;4914586;29;20074;-72
2024/03/20 02:26:22;;;;;;;4.57;3.60;;;12.60;96.70;;;;;;4930634;29;20051;-72
2024/03/20 02:28:49;;;;;;;4.47;3.10;;;12.50;96.70;;;;;;4915726;29;20051;-72
2024/03/20 02:31:17;;;;;;;3.88;3.03;;;12.40;96.70;;;;;;4927871;29;20119;-72
2024/03/20 02:33:44;;;;;;;5.55;3.35;;;12.40;96.70;;;;;;4931314;29;20083;-72
2024/03/20 02:36:11;;;;;;;5.10;2.75;;;12.30;96.70;;;;;;4930684;29;20043;-72
2024/03/20 02:38:42;;;;;;;6.95;2.80;;;12.40;96.70;;;;;;4914876;29;20531;-72
2024/03/20 02:41:09;;;;;;;4.88;3.15;;;12.30;96.70;;;;;;4928303;29;20047;-72
2024/03/20 02:43:37;;;;;;;3.85;2.80;;;12.30;96.70;;;;;;4930926;29;20088;-72
2024/03/20 02:46:05;;;;;;;6.30;2.75;;;12.30;96.70;;;;;;4929425;29;20557;-73
2024/03/20 02:48:34;;;;;;;3.22;2.92;;;12.20;96.70;;;;;;4912003;29;20086;-72
2024/03/20 02:51:02;;;;;;;3.60;2.83;;;12.10;96.70;;;;;;4930441;29;20719;-72
2024/03/20 02:53:29;;;;;;;5.65;3.78;;;12.10;96.70;;;;;;4946507;29;20047;-72
2024/03/20 02:55:58;;;;;;;5.55;3.22;;;12.10;96.70;;;;;;4944767;28;20070;-72
2024/03/20 02:58:26;;;;;;;3.70;2.72;;;12.20;96.70;;;;;;4930910;29;20126;-72
2024/03/20 03:00:53;;;;;;;4.68;3.05;;;12.10;96.70;;;;;;4903707;29;20443;-73
2024/03/20 03:03:22;;;;;;;3.92;3.10;;;12.10;96.70;;;;;;4911955;29;20051;-72
2024/03/20 03:05:49;;;;;;;3.90;2.90;;;12.10;96.70;;;;;;4924776;29;20064;-72
2024/03/20 03:08:16;;;;;;;3.88;2.85;;;12.00;96.70;;;;;;4898737;29;20105;-72
2024/03/20 03:10:44;;;;;;;4.05;2.75;;;12.00;96.70;;;;;;4930168;29;20047;-72
2024/03/20 03:13:14;;;;;;;3.15;2.72;;;12.00;96.70;;;;;;4931152;29;20113;-72
2024/03/20 03:15:42;;;;;;;3.45;2.83;;;11.90;96.70;;;;;;4927594;29;20047;-72
2024/03/20 03:18:09;;;;;;;3.35;2.83;;;11.90;96.70;;;;;;4944564;29;20053;-72
2024/03/20 03:20:36;;;;;;;2.92;2.40;;;11.90;96.70;;;;;;4914896;29;20055;-72
2024/03/20 03:23:03;;;;;;;2.47;2.28;;;11.80;96.70;;;;;;4927295;29;20520;-72
2024/03/20 03:25:30;;;;;;;3.15;2.70;;;11.70;96.70;;;;;;4923933;29;20043;-72
2024/03/20 03:27:57;;;;;;;5.00;2.60;;;11.70;96.70;;;;;;4914248;29;20055;-72
2024/03/20 03:30:27;;;;;;;2.80;2.40;;;11.60;96.70;;;;;;4912014;29;20078;-72
2024/03/20 03:32:57;;;;;;;4.13;2.55;;;11.70;96.70;;;;;;4929904;29;20074;-72
2024/03/20 03:35:25;;;;;;;2.30;2.10;;;11.70;96.70;;;;;;4930250;29;20063;-72
2024/03/20 03:37:52;;;;;;;2.67;2.45;;;11.70;96.70;;;;;;4914816;29;20050;-72
2024/03/20 03:40:19;;;;;;;3.20;2.90;;;11.70;96.70;;;;;;4914580;29;20936;-71
2024/03/20 03:42:49;;;;;;;5.15;2.30;;;11.70;96.70;;;;;;4915505;29;20405;-72
2024/03/20 03:45:16;;;;;;;4.43;2.50;;;11.60;96.70;;;;;;4906439;29;20063;-72
2024/03/20 03:47:48;;;;;;;3.83;2.33;;;11.60;96.70;;;;;;4945226;28;20090;-72
2024/03/20 03:50:15;;;;;;;3.30;2.50;;;11.60;96.70;;;;;;4928429;29;20055;-72
2024/03/20 03:52:44;;;;;;;4.22;2.60;;;11.60;96.70;;;;;;4930666;29;20051;-72
2024/03/20 03:55:13;;;;;;;2.63;2.30;;;11.60;96.70;;;;;;4909954;29;20055;-71
2024/03/20 03:57:42;;;;;;;4.85;2.30;;;11.60;96.70;;;;;;4930636;29;20058;-72
2024/03/20 04:00:10;;;;;;;4.10;2.25;;;11.60;96.70;;;;;;4912452;29;20051;-72
2024/03/20 04:02:37;;;;;;;4.18;2.20;;;11.40;96.70;;;;;;4929462;29;20066;-72
2024/03/20 04:05:08;;;;;;;3.03;2.45;;;11.50;96.70;;;;;;4914426;29;20059;-72
2024/03/20 04:07:35;;;;;;;3.20;2.00;;;11.50;96.70;;;;;;4915493;29;20054;-72
2024/03/20 04:10:02;;;;;;;4.22;2.38;;;11.40;96.70;;;;;;4933836;29;20050;-72
2024/03/20 04:12:31;;;;;;;3.45;2.00;;;11.40;96.70;;;;;;4903291;29;20043;-72
2024/03/20 04:14:59;;;;;;;2.40;2.10;;;11.30;96.70;;;;;;4902539;29;20053;-72
2024/03/20 04:17:26;;;;;;;3.30;2.30;;;11.30;96.70;;;;;;4931742;29;20070;-72
2024/03/20 04:19:53;;;;;;;3.40;2.33;;;11.40;96.70;;;;;;4918155;29;20145;-72
2024/03/20 04:22:22;;;;;;;4.03;2.38;;;11.30;96.70;;;;;;4933592;29;20051;-72
2024/03/20 04:24:50;;;;;;;3.22;2.25;;;11.20;96.70;;;;;;4936944;29;20071;-72
2024/03/20 04:27:18;;;;;;;3.78;2.05;;;11.20;96.70;;;;;;4930803;29;20059;-72
2024/03/20 04:29:46;;;;;;;3.00;2.42;;;11.20;96.70;;;;;;4933432;29;20513;-72
2024/03/20 04:32:13;;;;;;;3.28;2.42;;;11.20;96.70;;;;;;4901765;29;20086;-72
2024/03/20 04:34:40;;;;;;;3.42;2.45;;;11.20;96.70;;;;;;4903095;29;20051;-73
2024/03/20 04:37:08;;;;;;;4.95;2.88;;;11.20;96.70;;;;;;4917348;29;20067;-72
2024/03/20 04:39:38;;;;;;;3.55;2.70;;;11.10;96.70;;;;;;4933361;29;20055;-72
2024/03/20 04:42:06;;;;;;;3.35;1.92;;;11.10;96.70;;;;;;4901778;29;20051;-72
2024/03/20 04:44:33;;;;;;;4.13;2.58;;;11.10;96.70;;;;;;4914768;29;20051;-72
2024/03/20 04:47:01;;;;;;;3.85;2.55;;;11.10;96.70;;;;;;4916513;29;20146;-72
2024/03/20 04:49:28;;;;;;;3.05;2.13;;;11.10;96.70;;;;;;4930149;29;20109;-72
2024/03/20 04:51:57;;;;;;;3.38;2.28;;;11.10;96.70;;;;;;4916338;29;20055;-72
2024/03/20 04:54:25;;;;;;;3.05;2.40;;;11.10;96.70;;;;;;4928017;29;20457;-72
2024/03/20 04:56:55;;;;;;;3.25;2.30;;;11.10;96.70;;;;;;4908930;29;20054;-72
2024/03/20 04:59:23;;;;;;;3.47;2.40;;;11.00;96.70;;;;;;4929930;29;20134;-72
2024/03/20 05:01:51;;;;;;;3.50;2.80;;;11.00;96.70;;;;;;4932584;29;20062;-72
2024/03/20 05:04:19;;;;;;;3.35;2.60;;;11.00;96.70;;;;;;4947979;29;20077;-73
2024/03/20 05:06:46;;;;;;;4.80;2.78;;;11.00;96.70;;;;;;4932070;29;20405;-72
2024/03/20 05:09:15;;;;;;;4.68;2.63;;;11.00;96.70;;;;;;4932499;29;20055;-72
2024/03/20 05:11:44;;;;;;;3.00;2.45;;;11.00;96.70;;;;;;4914919;29;20600;-72
2024/03/20 05:14:14;;;;;;;3.95;2.55;;;10.90;96.70;;;;;;4917330;29;20055;-72
2024/03/20 05:16:43;;;;;;;3.38;2.40;;;10.90;96.70;;;;;;4917791;29;20051;-72
2024/03/20 05:19:11;;;;;;;5.13;2.75;;;10.80;96.70;;;;;;4910560;29;20044;-73
2024/03/20 05:21:40;;;;;;;3.70;2.55;;;10.90;96.70;;;;;;4947069;29;20611;-73
2024/03/20 05:24:10;;;;;;;3.00;2.42;;;10.80;96.70;;;;;;4902108;29;20047;-72
2024/03/20 05:26:40;;;;;;;4.38;3.00;;;10.90;96.70;;;;;;4916950;29;20627;-73
2024/03/20 05:29:07;;;;;;;2.88;2.40;;;10.90;96.70;;;;;;4931331;29;20044;-73
2024/03/20 05:31:36;;;;;;;4.18;2.60;;;10.90;96.70;;;;;;4916631;29;20106;-73
2024/03/20 05:34:03;;;;;;;3.38;2.20;;;10.90;96.70;;;;;;4924044;29;20649;-72
2024/03/20 05:36:32;;;;;;;3.53;2.33;;;10.90;96.70;;;;;;4932480;29;20051;-73
2024/03/20 05:39:00;;;;;;;2.92;2.15;;;10.90;96.70;;;;;;4932492;29;20051;-71
2024/03/20 05:41:30;;;;;;;4.45;2.90;;;10.80;96.70;;;;;;4915861;29;20051;-72
2024/03/20 05:43:57;;;;;;;4.03;2.83;;;10.90;96.70;;;;;;4948231;28;20054;-72
2024/03/20 05:46:25;;;;;;;3.70;2.60;;;10.90;96.70;;;;;;4931745;29;20051;-73
2024/03/20 05:48:57;;;;;;;3.15;2.33;;;10.90;96.70;;;;;;4916943;29;20074;-73
2024/03/20 05:51:24;;;;;;;2.63;2.42;;;10.80;96.70;;;;;;4913455;29;20051;-72
2024/03/20 05:53:51;;;;;;;2.42;2.10;;;10.90;96.70;;;;;;4916676;29;20472;-73
2024/03/20 05:56:18;;;;;;;6.53;2.42;;;10.90;96.70;;;;;;4920234;29;20083;-73
2024/03/20 05:58:46;;;;;;;3.63;3.15;;;10.90;96.70;;;;;;4930543;29;20058;-73
2024/03/20 06:01:13;;;;;;;3.20;2.13;;;10.90;96.70;;;;;;4914272;29;20111;-73
2024/03/20 06:03:40;;;;;;;3.72;2.63;;;11.00;96.70;;;;;;4913383;29;20055;-73
2024/03/20 06:06:09;;;;;;;3.85;2.35;;;11.00;96.70;;;;;;4906881;29;20059;-72
2024/03/20 06:08:36;;;;;;;4.53;2.50;;;11.10;96.70;;;;;;4947270;29;20476;-71
2024/03/20 06:11:22;;;;;;;3.65;2.47;;;11.10;96.70;;;;;;4929284;29;20126;-73
2024/03/20 06:13:49;;;;;;;5.00;2.50;;;11.20;96.70;;;;;;4932293;29;20066;-73
2024/03/20 06:16:17;;;;;;;4.75;2.63;;;11.30;96.70;;;;;;4916276;29;20055;-73
2024/03/20 06:18:45;;;;;;;6.47;2.63;;;11.40;96.70;;;;;;4928162;29;20074;-73
2024/03/20 06:21:16;;;;;;;6.68;3.28;;;11.30;96.70;;;;;;4947783;29;20062;-72
2024/03/20 06:23:43;;;;;;;3.72;2.42;;;11.40;96.70;;;;;;4916320;29;20425;-72
2024/03/20 06:26:12;;;;;;;4.07;2.50;;;11.50;96.70;;;;;;4929366;29;20050;-73
2024/03/20 06:28:40;;;;;;;2.38;1.95;;;11.50;96.70;;;;;;4904634;29;20056;-72
2024/03/20 06:31:09;;;;;;;3.10;2.22;;;11.40;96.70;;;;;;4900972;29;20051;-72
2024/03/20 06:33:36;;;;;;;2.70;2.40;;;11.40;96.70;;;;;;4929939;29;20050;-72
2024/03/20 06:36:04;;;;;;;6.40;2.85;;;11.40;96.70;;;;;;4931524;29;20057;-73
2024/03/20 06:38:35;;;;;;;6.82;2.72;;;11.50;96.70;;;;;;4902357;29;20222;-72
2024/03/20 06:41:03;;;;;;;6.53;2.40;;;11.60;96.70;;;;;;4899381;29;20713;-73
2024/03/20 06:43:34;;;;;;;4.60;3.05;;;11.60;96.70;;;;;;4947075;29;20043;-72
2024/03/20 06:46:02;;;;;;;4.60;2.97;;;11.60;96.70;;;;;;4932655;29;20039;-73
2024/03/20 06:48:31;;;;;;;7.78;3.47;;;11.60;96.70;;;;;;4931745;29;20293;-72
2024/03/20 06:50:59;;;;;;;8.23;3.35;;;11.60;96.70;;;;;;4915554;29;20170;-73
2024/03/20 06:53:28;;;;;;;5.32;3.55;;;11.70;96.70;;;;;;4930866;29;20059;-72
2024/03/20 06:55:59;;;;;;;4.20;3.00;;;11.80;96.70;;;;;;4930828;29;20504;-73
2024/03/20 06:58:26;;;;;;;5.47;3.45;;;11.90;96.70;;;;;;4930365;29;20051;-73
2024/03/20 07:00:53;;;;;;;4.35;3.13;;;11.90;96.70;;;;;;4929300;29;20050;-72
2024/03/20 07:03:22;;;;;;;6.88;3.47;;;11.90;96.70;;;;;;4929752;29;20047;-73
2024/03/20 07:05:51;;;;;;;5.13;3.50;;;12.00;96.70;;;;;;4929975;29;20114;-74
2024/03/20 07:08:19;;;;;;;9.52;4.72;;;12.10;96.70;;;;;;4930072;29;20101;-73
2024/03/20 07:10:46;;;;;;;5.82;3.80;;;12.10;96.70;;;;;;4907638;29;20081;-73
2024/03/20 07:13:16;;;;;;;5.00;3.60;;;12.10;96.70;;;;;;4923708;29;20048;-73
2024/03/20 07:15:46;;;;;;;6.63;3.60;;;12.10;96.70;;;;;;4894273;29;20067;-73
2024/03/20 07:18:13;;;;;;;6.05;3.45;;;12.20;96.70;;;;;;4924209;29;20551;-73
2024/03/20 07:20:42;;;;;;;5.15;2.83;;;12.30;96.70;;;;;;4930935;29;20058;-74
2024/03/20 07:23:10;;;;;;;4.38;3.78;;;12.30;96.70;;;;;;4914599;29;20059;-74
2024/03/20 07:25:38;;;;;;;3.55;3.13;;;12.40;96.70;;;;;;4930304;29;20050;-74
2024/03/20 07:28:07;;;;;;;5.35;3.72;;;12.50;96.70;;;;;;4914907;29;21330;-74
2024/03/20 07:30:36;;;;;;;4.40;3.28;;;12.60;96.70;;;;;;4930794;29;20053;-74
2024/03/20 07:33:04;;;;;;;6.78;3.50;;;12.60;96.70;;;;;;4899747;29;20043;-74
2024/03/20 07:35:44;;;;;;;5.43;3.28;;;12.70;96.70;;;;;;4929234;29;20058;-74
2024/03/20 07:38:13;;;;;;;6.03;3.92;;;12.80;96.70;;;;;;4929799;29;20071;-74
2024/03/20 07:40:43;;;;;;;4.22;3.05;;;12.90;96.70;;;;;;4930379;29;20109;-74
2024/03/20 07:43:10;;;;;;;5.53;3.15;;;13.00;96.70;;;;;;4932674;29;20043;-74
2024/03/20 07:45:39;;;;;;;4.03;2.58;;;13.00;96.70;;;;;;4927425;29;20432;-74
2024/03/20 07:48:09;;;;;;;3.78;2.97;;;13.10;96.70;;;;;;4918774;29;20039;-73
2024/03/20 07:50:35;;;;;;;4.68;2.70;;;13.20;96.70;;;;;;4903128;29;20080;-73
2024/03/20 07:53:04;;;;;;;4.97;2.75;;;13.30;96.70;;;;;;4933580;29;20117;-74
2024/03/20 07:55:32;;;;;;;6.57;2.70;;;13.40;96.70;;;;;;4918934;29;20051;-74
2024/03/20 07:58:00;;;;;;;7.25;3.40;;;13.50;96.70;;;;;;4921204;29;20055;-74
2024/03/20 08:00:29;;;;;;;4.70;2.50;;;13.60;96.70;;;;;;4918165;29;20429;-73
2024/03/20 08:03:00;;;;;;;2.60;2.28;;;13.70;96.70;;;;;;4933320;29;20051;-74
2024/03/20 08:05:27;;;;;;;3.40;2.75;;;13.80;96.70;;;;;;4910975;29;20117;-74
2024/03/20 08:07:55;;;;;;;4.10;2.55;;;13.90;96.70;;;;;;4933838;29;20047;-74
2024/03/20 08:10:24;;;;;;;3.38;2.80;;;13.90;96.70;;;;;;4929387;29;20051;-73
2024/03/20 08:12:51;;;;;;;4.18;3.50;;;14.00;96.70;;;;;;4902839;29;20122;-73
2024/03/20 08:15:18;;;;;;;3.63;2.92;;;14.00;96.70;;;;;;4918848;29;20628;-73
2024/03/20 08:17:46;;;;;;;3.38;3.05;;;14.10;96.70;;;;;;4933350;29;20500;-72
2024/03/20 08:20:15;;;;;;;6.03;3.13;;;14.20;96.70;;;;;;4934154;29;20125;-73
2024/03/20 08:22:42;;;;;;;7.40;3.78;;;14.30;96.70;;;;;;4933924;29;20107;-73
2024/03/20 08:25:10;;;;;;;5.68;3.50;;;14.30;96.70;;;;;;4930921;29;20951;-74
2024/03/20 08:27:39;;;;;;;5.40;2.97;;;14.40;96.70;;;;;;4931629;29;20146;-74
2024/03/20 08:30:09;;;;;;;4.32;3.30;;;14.50;96.70;;;;;;4933841;29;20071;-74
2024/03/20 08:32:41;;;;;;;3.60;3.17;;;14.50;96.70;;;;;;4918948;29;20484;-74
2024/03/20 08:35:12;;;;;;;5.55;3.70;;;14.60;96.70;;;;;;4904057;29;20134;-74
2024/03/20 08:37:41;;;;;;;7.05;4.10;;;14.60;96.70;;;;;;4934233;29;20039;-73
2024/03/20 08:40:10;;;;;;;7.40;3.85;;;14.70;96.70;;;;;;4902479;29;20075;-74
2024/03/20 08:42:40;;;;;;;5.93;4.00;;;14.80;96.70;;;;;;4916904;29;20061;-74
2024/03/20 08:45:09;;;;;;;5.78;4.03;;;14.80;96.70;;;;;;4927311;29;20189;-74
2024/03/20 08:47:37;;;;;;;8.20;4.88;;;14.90;96.70;;;;;;4932994;29;20050;-73
2024/03/20 08:50:08;;;;;;;5.80;4.50;;;14.90;96.70;;;;;;4933983;29;20051;-74
2024/03/20 08:52:39;;;;;;;6.70;4.78;;;15.00;96.70;;;;;;4933315;29;20094;-74
2024/03/20 08:55:10;;;;;;;7.07;4.60;;;15.10;96.70;;;;;;4914468;29;20461;-74
2024/03/20 08:57:39;;;;;;;7.15;4.70;;;15.20;96.70;;;;;;4917775;29;20196;-74
2024/03/20 09:00:11;;;;;;;7.25;4.82;;;15.20;96.70;;;;;;4912165;29;20059;-74
2024/03/20 09:02:39;;;;;;;5.40;4.40;;;15.30;96.70;;;;;;4903195;29;20110;-74
2024/03/20 09:05:07;;;;;;;5.40;3.65;;;15.40;96.70;;;;;;4917365;29;20142;-74
2024/03/20 09:07:36;;;;;;;5.05;3.85;;;15.50;96.70;;;;;;4909782;29;20588;-73
2024/03/20 09:10:03;;;;;;;4.90;3.67;;;15.70;96.70;;;;;;4925257;29;20051;-74
2024/03/20 09:12:32;;;;;;;5.47;3.72;;;15.90;96.70;;;;;;4925621;29;20047;-73
2024/03/20 09:15:00;;;;;;;5.93;3.55;;;16.00;96.70;;;;;;4932828;29;20521;-74
2024/03/20 09:17:29;;;;;;;6.10;3.30;;;16.00;96.70;;;;;;4911832;29;20619;-74
2024/03/20 09:19:56;;;;;;;3.78;3.38;;;16.00;96.70;;;;;;4922672;29;20047;-73
2024/03/20 09:22:25;;;;;;;3.58;2.90;;;16.10;96.70;;;;;;4915329;29;20078;-74
2024/03/20 09:24:53;;;;;;;3.65;3.13;;;16.20;96.70;;;;;;4917085;29;20039;-74
2024/03/20 09:27:20;;;;;;;4.25;2.58;;;16.40;96.70;;;;;;4916668;29;20053;-74
2024/03/20 09:29:48;;;;;;;4.07;2.38;;;16.50;96.70;;;;;;4914300;29;20051;-73
2024/03/20 09:32:16;;;;;;;3.28;2.60;;;16.70;96.70;;;;;;4930823;29;20055;-73
2024/03/20 09:34:44;;;;;;;3.60;2.30;;;16.70;96.70;;;;;;4926874;29;20051;-74
2024/03/20 09:37:12;;;;;;;4.93;2.50;;;16.70;96.70;;;;;;4932245;29;20072;-74
2024/03/20 09:39:39;;;;;;;4.95;2.45;;;16.70;96.70;;;;;;4932464;29;20137;-74
2024/03/20 09:42:10;;;;;;;4.18;2.03;;;16.90;96.70;;;;;;4916556;29;20150;-75
2024/03/20 09:44:38;;;;;;;2.38;2.08;;;17.10;96.70;;;;;;4931883;29;20051;-74
2024/03/20 09:47:10;;;;;;;3.08;2.05;;;17.20;96.70;;;;;;4916319;29;20047;-74
2024/03/20 09:49:38;;;;;;;3.55;2.38;;;17.30;96.70;;;;;;4930066;29;20501;-74
2024/03/20 09:52:08;;;;;;;3.83;2.10;;;17.40;96.70;;;;;;4931570;29;20156;-74
2024/03/20 09:54:37;;;;;;;2.63;1.83;;;17.60;96.70;;;;;;4932163;29;20051;-74
2024/03/20 09:57:06;;;;;;;3.33;1.83;;;17.60;96.70;;;;;;4932170;29;20142;-73
2024/03/20 09:59:35;;;;;;;2.60;1.85;;;17.80;96.70;;;;;;4929416;29;20051;-74
2024/03/20 10:02:02;;;;;;;2.85;1.83;;;17.90;96.70;;;;;;4899764;29;20058;-74
2024/03/20 10:04:36;;;;;;;4.03;1.67;;;18.10;96.70;;;;;;4900094;28;20052;-74
2024/03/20 10:07:09;;;;;;;;;;;18.20;96.70;;;;;;4916643;29;20147;-74
2024/03/20 10:09:36;;;;;;;2.33;1.63;;;18.30;96.70;;;;;;4931961;29;20021;-74
2024/03/20 10:12:08;;;;;;;3.05;1.90;;;18.20;96.70;;;;;;4916218;29;20886;-74
2024/03/20 10:14:38;;;;;;;3.03;1.80;;;18.20;96.70;;;;;;4918275;29;20437;-74
2024/03/20 10:17:11;;;;;;;2.40;1.88;;;18.30;96.70;;;;;;4916318;29;20078;-73
2024/03/20 10:19:40;;;;;;;2.42;1.80;;;18.60;96.70;;;;;;4900845;29;20571;-74
2024/03/20 10:22:07;;;;;;;2.53;1.77;;;18.70;96.70;;;;;;4931973;29;20075;-74
2024/03/20 10:24:37;;;;;;;5.15;1.98;;;18.70;96.70;;;;;;4926360;29;20055;-74
2024/03/20 10:27:07;;;;;;;4.30;2.20;;;18.70;96.70;;;;;;4908933;29;20102;-74
2024/03/20 10:29:35;;;;;;;1.95;1.75;;;18.70;96.70;;;;;;4931186;29;20119;-74
2024/03/20 10:32:05;;;;;;;3.75;1.88;;;18.90;96.70;;;;;;4912406;29;20096;-74
2024/03/20 10:34:36;;;;;;;3.25;2.20;;;19.10;96.70;;;;;;4915391;29;20552;-75
2024/03/20 10:37:07;;;;;;;3.08;2.10;;;19.10;96.70;;;;;;4931143;29;20043;-74
2024/03/20 10:39:37;;;;;;;2.53;2.03;;;19.30;96.70;;;;;;4915796;29;20047;-74
2024/03/20 10:42:05;;;;;;;2.05;1.50;;;19.40;96.70;;;;;;4927352;29;20178;-75
2024/03/20 10:44:35;;;;;;;2.25;2.00;;;19.40;96.70;;;;;;4903893;29;20055;-74
2024/03/20 10:47:04;;;;;;;3.40;2.30;;;19.30;96.70;;;;;;4948056;29;20362;-74
2024/03/20 10:49:32;;;;;;;3.80;2.08;;;19.40;96.70;;;;;;4931482;29;20051;-74
2024/03/20 10:51:59;;;;;;;4.03;2.40;;;19.70;96.70;;;;;;4931067;29;20145;-74
2024/03/20 10:54:29;;;;;;;3.63;1.95;;;19.70;96.70;;;;;;4931219;29;20095;-75
2024/03/20 10:56:57;;;;;;;3.05;2.10;;;19.80;96.70;;;;;;4915115;29;20464;-74
2024/03/20 10:59:26;;;;;;;3.05;1.90;;;19.70;96.70;;;;;;4914116;29;20509;-75
2024/03/20 11:02:02;;;;;;;1.95;1.42;;;19.80;96.70;;;;;;4913536;29;20549;-74
2024/03/20 11:04:39;;;;;;;2.42;1.30;;;19.90;96.70;;;;;;4907418;29;20062;-73
2024/03/20 11:07:35;;;;;;;2.00;1.27;;;20.20;96.70;;;;;;4931808;29;20051;-74
2024/03/20 11:10:17;;;;;;;2.13;1.00;;;20.30;96.70;;;;;;4913645;29;20055;-74
2024/03/20 11:12:45;;;;;;;2.25;1.00;;;20.40;96.70;;;;;;4931091;29;20055;-74
2024/03/20 11:15:18;;;;;;;1.10;0.70;;;20.50;96.70;;;;;;4899027;29;20193;-75
2024/03/20 11:17:52;;;;;;;1.50;0.93;;;20.60;96.70;;;;;;4911892;29;20142;-75
2024/03/20 11:20:42;;;;;;;1.35;0.77;;;20.80;96.70;;;;;;4914765;29;20058;-74
2024/03/20 11:23:28;;;;;;;1.40;0.88;;;20.80;96.70;;;;;;4930581;29;20055;-74
2024/03/20 11:25:58;;;;;;;1.20;0.70;;;21.00;96.70;;;;;;4918053;29;20087;-74
2024/03/20 11:28:28;;;;;;;2.90;1.00;;;21.10;96.70;;;;;;4906159;29;20055;-74
2024/03/20 11:30:57;;;;;;;0.80;0.60;;;21.20;96.70;;;;;;4930575;29;20062;-75
2024/03/20 11:33:25;;;;;;;0.70;0.60;;;21.20;96.70;;;;;;4913831;29;20665;-74
2024/03/20 11:35:53;;;;;;;1.70;0.90;;;21.10;96.70;;;;;;4914823;29;20533;-75
2024/03/20 11:38:28;;;;;;;0.90;0.65;;;21.30;96.70;;;;;;4930624;29;20047;-74
2024/03/20 11:40:59;;;;;;;1.00;0.47;;;21.10;96.70;;;;;;4899250;29;20052;-75
2024/03/20 11:43:26;;;;;;;2.25;0.88;;;21.00;96.70;;;;;;4931319;29;20493;-74
2024/03/20 11:45:54;;;;;;;2.05;0.70;;;21.10;96.70;;;;;;4914429;29;20047;-75
2024/03/20 11:48:23;;;;;;;0.82;0.68;;;21.10;96.70;;;;;;4930563;29;20118;-75
2024/03/20 11:50:51;;;;;;;0.98;0.60;;;21.40;96.70;;;;;;4926436;29;20055;-73
2024/03/20 11:53:20;;;;;;;0.75;0.55;;;21.50;96.70;;;;;;4915446;29;20062;-75
2024/03/20 11:55:48;;;;;;;1.92;0.60;;;21.50;96.70;;;;;;4930264;29;20785;-75
2024/03/20 11:58:18;;;;;;;0.80;0.55;;;21.70;96.70;;;;;;4944969;29;20525;-75
2024/03/20 12:00:45;;;;;;;1.67;0.70;;;21.90;96.70;;;;;;4930375;29;20682;-76
2024/03/20 12:03:19;;;;;;;1.30;0.82;;;22.00;96.70;;;;;;4930320;29;20062;-75
2024/03/20 12:05:47;;;;;;;1.65;0.80;;;22.00;96.70;;;;;;4930636;29;20087;-75
2024/03/20 12:08:18;;;;;;;1.65;1.00;;;22.20;96.70;;;;;;4914449;29;20062;-75
2024/03/20 12:10:46;;;;;;;1.35;1.08;;;22.10;96.70;;;;;;4945500;29;20049;-75
2024/03/20 12:13:13;;;;;;;1.52;1.17;;;22.20;96.70;;;;;;4929782;29;20055;-74
2024/03/20 12:15:43;;;;;;;1.25;0.80;;;22.10;96.70;;;;;;4929648;29;20054;-75
2024/03/20 12:18:10;;;;;;;1.90;0.80;;;22.00;96.70;;;;;;4906211;29;20151;-75
2024/03/20 12:20:40;;;;;;;0.90;0.60;;;22.00;96.70;;;;;;4930474;29;20083;-74
2024/03/20 12:23:09;;;;;;;2.35;0.80;;;22.30;96.70;;;;;;4896554;29;20039;-75
2024/03/20 12:25:39;;;;;;;1.92;0.90;;;22.40;96.70;;;;;;4908066;29;20054;-75
2024/03/20 12:28:09;;;;;;;1.75;0.85;;;22.40;96.70;;;;;;4894178;29;20075;-75
2024/03/20 12:30:39;;;;;;;0.82;0.52;;;22.30;96.70;;;;;;4917203;29;20051;-75
2024/03/20 12:33:10;;;;;;;1.50;0.93;;;22.30;96.70;;;;;;4933325;29;20050;-75
2024/03/20 12:35:39;;;;;;;2.13;0.52;;;22.40;96.70;;;;;;4930626;29;20078;-76
2024/03/20 12:38:08;;;;;;;1.77;0.90;;;22.50;96.70;;;;;;4915250;29;20067;-76
2024/03/20 12:40:35;;;;;;;0.77;0.55;;;22.80;96.70;;;;;;4932275;28;20441;-75
2024/03/20 12:43:04;;;;;;;1.90;0.60;;;23.00;96.70;;;;;;4932938;29;20049;-74
2024/03/20 12:45:31;;;;;;;0.90;0.57;;;23.10;96.70;;;;;;4933000;29;20050;-76
2024/03/20 12:47:59;;;;;;;1.15;0.95;;;23.20;96.70;;;;;;4931675;29;20047;-75
2024/03/20 12:50:29;;;;;;;1.50;0.60;;;23.40;96.70;;;;;;4915907;29;20058;-75
2024/03/20 12:52:56;;;;;;;1.08;0.60;;;23.50;96.70;;;;;;4949199;29;20102;-74
2024/03/20 12:55:24;;;;;;;1.75;0.60;;;23.60;96.70;;;;;;4916966;29;20123;-75